Oscar Dyson — WTEP — position and weather

sailwx.info

Track history (hours):
 
Tides and Currents Weather Stations Pressure Air Temp Water Temp Dewpoint Dewpoint Depression Visibility Wind Speed Wind Dir Waves Ship Positions

Oceanographic research ship Oscar Dyson (USA)

Ship's website: http://www.moc.noaa.gov/od/

Detailed information on ship capabilities available from University of Delaware's Ocean Information Center and ARCUS's ALIAS (Arctic Logistics Information and Support) project.

Last reported at 2017-May-25 19:00 UTC. Time now 2017-May-25 20:06 UTC.
Position N 55°30' W 156°00'.

Type: Ship. MMSI: 369959000.

Wind from 270 at 16 knots

Barometer 1023.0 mb
Air temperature 6.2 ° C
Dewpoint 2.8 ° C
Water temperature 7.2 ° C

Date/timePositionNaut miles runAvg speedWind from/ knotsBaromVisibWave heightAir tempDewpointWater temp
2017-May-25 19:00N 55°30' W 156°00'9 9.1 270 / 161023.0 6.2 2.8 7.2
2017-May-25 18:00N 55°36' W 156°12'3 3.4 270 / 141022.8 6.3 3.0 6.6
2017-May-25 17:00N 55°36' W 156°18'7 6.9 280 / 181022.3 6.2 3.0 6.3
2017-May-25 16:00N 55°42' W 156°24'9 9.0 280 / 171021.6 5.9 3.0 6.3
2017-May-25 15:00N 55°48' W 156°36'0 0.0 270 / 211021.1 5.8 3.3 6.1
2017-May-25 14:00N 55°48' W 156°36'9 9.0 280 / 20 5.9 6.2
2017-May-25 13:00N 55°54' W 156°48'0 0.0 260 / 211020.3 6.0 3.6 6.4
2017-May-25 12:00N 55°54' W 156°48'9 9.0 250 / 20 5.8 6.4
2017-May-25 11:00N 56°00' W 157°00'3 3.4 240 / 191020.1 5.9 3.7 6.3
2017-May-25 10:00N 56°00' W 157°06'0 0.0 250 / 15 5.9 6.5
2017-May-25 09:00N 56°00' W 157°06'1413.7 250 / 181020.0 6.0 3.9 6.4
2017-May-25 08:00N 56°12' W 157°18'3 3.3 240 / 181019.5 6.1 3.8 6.2
2017-May-25 07:00N 56°12' W 157°24'7 6.9 230 / 201019.2 6.0 4.3 6.2
2017-May-25 06:00N 56°18' W 157°30'3 3.3 230 / 141019.5 6.0 4.3 6.2
2017-May-25 05:00N 56°18' W 157°24'7 6.7 240 / 161019.3 6.0 3.9 5.6
2017-May-25 04:00N 56°18' W 157°12'3 3.3 240 / 181019.3 6.3 3.6 6.2
2017-May-25 03:00N 56°18' W 157°06'9 9.0 230 / 221019.0 6.6 4.4 6.2
2017-May-25 02:00N 56°12' W 156°54'3 3.3 220 / 191019.5 6.8 3.8 6.2
2017-May-25 01:00N 56°12' W 156°48'0 0.0 230 / 181019.3 6.5 2.9 6.2
2017-May-25 00:00N 56°12' W 156°48'0 0.0 250 / 181019.3 6.6 2.6 5.7
2017-May-24 23:00N 56°12' W 156°48'0 0.0 240 / 151019.0 6.4 2.5 5.6
2017-May-24 22:00N 56°12' W 156°48'0 0.0 230 / 151018.5 6.6 3.9 5.6
2017-May-24 21:00N 56°12' W 156°48'0 0.0 270 / 61018.0 6.2 3.9 5.6
2017-May-24 20:00N 56°12' W 156°48'0 0.0 270 / 111016.9 5.8 4.7 5.6
2017-May-24 19:00N 56°12' W 156°48'0 0.0 260 / 141015.8 6.3 5.6 5.6
2017-May-24 18:00N 56°12' W 156°48'0 0.0 230 / 221014.8 6.6 5.9 5.6
2017-May-24 17:00N 56°12' W 156°48'0 0.0 230 / 211014.2 6.6 5.9 5.3
2017-May-24 16:00N 56°12' W 156°48'0 0.0 220 / 221013.9 6.7 5.9 5.5
2017-May-24 15:00N 56°12' W 156°48'0 0.0 200 / 231014.0 6.8 6.0 5.6
2017-May-24 14:00N 56°12' W 156°48'0 0.0 200 / 231014.2 6.9 6.0 5.3
2017-May-24 13:00N 56°12' W 156°48'0 0.0 190 / 231014.2 6.8 6.1 5.3
2017-May-24 12:00N 56°12' W 156°48'0 0.0 210 / 241014.4 7.0 6.1 5.3
2017-May-24 11:00N 56°12' W 156°48'0 0.0 220 / 221015.0 7.0 6.0 5.3
2017-May-24 10:00N 56°12' W 156°48'3200.3 210 / 221015.2 7.1 6.2 5.3
2017-May-24 09:59N 56°12' W 156°42'3 3.4 210 / 21 7.1 5.3
2017-May-24 09:00N 56°12' W 156°48'3200.3 200 / 221015.6 7.1 6.2 5.3
2017-May-24 08:59N 56°12' W 156°42'3 3.4 210 / 22 7.1 5.3
2017-May-24 08:00N 56°12' W 156°48'0 0.0 210 / 241016.0 7.0 6.3 5.5
2017-May-24 07:00N 56°12' W 156°48'0 0.0 210 / 251016.2 6.8 6.2 5.6
2017-May-24 06:00N 56°12' W 156°48'0 0.0 210 / 251016.3 7.0 6.2 5.5
2017-May-24 05:00N 56°12' W 156°48'3 3.3 200 / 301016.6 7.3 6.2 5.6
2017-May-24 04:00N 56°12' W 156°42'1413.7 210 / 32 7.3 5.3
2017-May-24 03:00N 56°00' W 156°30'6 6.0 210 / 29 6.9 5.9
2017-May-24 02:00N 55°54' W 156°30'7 6.7 220 / 261019.2 6.6 6.3 6.1
2017-May-24 01:00N 55°54' W 156°18'7 6.9 210 / 281019.6 6.9 6.3 7.1
2017-May-24 00:00N 55°48' W 156°12'9 9.0 210 / 271020.2 7.2 6.6 7.0
2017-May-23 23:00N 55°42' W 156°00'7 6.9 220 / 231021.2 7.0 6.7 6.3
2017-May-23 22:00N 55°36' W 155°54'7 6.8 210 / 291021.6 6.9 6.5 7.2
2017-May-23 21:00N 55°36' W 155°42'7 6.9 210 / 251021.6 6.9 6.2 7.1
2017-May-23 20:00N 55°42' W 155°36'9 9.0 220 / 211022.2 6.7 5.4 6.3
2017-May-23 19:00N 55°48' W 155°48'0 0.0 220 / 221022.2 6.3 5.4 6.5
2017-May-23 18:00N 55°48' W 155°48'9 9.0 220 / 191022.4 6.2 5.1 6.2
2017-May-23 17:00N 55°54' W 156°00'7 6.9 220 / 211021.8 6.5 5.1 7.2
2017-May-23 16:00N 56°00' W 156°06'9 9.0 230 / 211021.7 6.8 4.7 7.3
2017-May-23 15:00N 56°06' W 156°18'9 9.0 230 / 181021.5 6.6 4.6 7.0
2017-May-23 14:00N 56°12' W 156°30'9 9.0 230 / 181021.3 6.6 4.7 6.7
2017-May-23 13:00N 56°18' W 156°42'9 9.0 230 / 171021.3 6.8 4.6 7.0
2017-May-23 12:00N 56°24' W 156°54'6 6.0 220 / 171021.0 6.7 5.0 6.8
2017-May-23 11:00N 56°30' W 156°54'6 6.0 250 / 161020.7 6.6 4.6 6.2
2017-May-23 10:00N 56°36' W 156°54'3 3.3 160 / 51020.7 6.3 3.1 6.5
2017-May-23 09:00N 56°36' W 156°48'7 6.9 200 / 71020.8 6.3 4.0 6.4
2017-May-23 08:00N 56°30' W 156°42'9 8.9 220 / 71020.7 6.5 2.8 6.7
2017-May-23 07:00N 56°24' W 156°30'0 0.0 280 / 71020.3 6.7 2.6 6.8
2017-May-23 06:00N 56°24' W 156°30'9 9.0 280 / 101019.6 6.8 2.8 6.7
2017-May-23 05:00N 56°18' W 156°18'9 9.0 290 / 171019.2 6.7 2.8 6.8
2017-May-23 04:00N 56°12' W 156°06'3 3.3 270 / 181018.3 6.9 2.4 7.3
2017-May-23 03:00N 56°12' W 156°00'3 3.3 280 / 181018.0 7.1 3.1 7.4
2017-May-23 02:00N 56°12' W 155°54'7 6.9 300 / 22 6.9 7.4
2017-May-23 01:00N 56°18' W 155°48'1211.6 290 / 211016.2 7.1 2.9 7.4
2017-May-23 00:00N 56°24' W 156°06'3 3.3 280 / 161015.5 7.4 3.6 7.2
2017-May-22 23:00N 56°24' W 156°00'12 5.8 280 / 16 7.4 7.1
2017-May-22 21:00N 56°30' W 156°18'9 8.9 290 / 201012.1 6.0 3.6 7.1
2017-May-22 20:00N 56°36' W 156°30'7 6.8 290 / 171011.1 6.1 3.0 6.6
2017-May-22 19:00N 56°42' W 156°36'7 6.8 280 / 151010.3 5.7 3.4 6.6
2017-May-22 18:00N 56°48' W 156°42'3 3.3 290 / 81009.6 5.6 3.5 6.5
2017-May-22 17:00N 56°48' W 156°36'3 3.3 280 / 5 5.1 6.1
2017-May-22 16:00N 56°48' W 156°30'7 6.6 250 / 7 5.0 6.7
2017-May-22 15:00N 56°48' W 156°18'1413.7 230 / 101007.4 4.8 3.6 6.5
2017-May-22 14:00N 56°36' W 156°06'0 0.0 210 / 9 5.0 6.6
2017-May-22 13:00N 56°36' W 156°06'1211.6 240 / 101006.7 4.9 3.4 6.8
2017-May-22 12:00N 56°30' W 155°48'0 0.0 210 / 14 5.4 7.0
2017-May-22 11:00N 56°30' W 155°48'9 8.9 220 / 161006.3 5.7 4.5 7.0
2017-May-22 10:00N 56°24' W 155°36'9 8.9 200 / 13 6.8 7.1
2017-May-22 09:00N 56°30' W 155°24'3 3.3 210 / 17 6.6 7.1
2017-May-22 08:00N 56°30' W 155°30'7 6.9 220 / 21 6.8 7.3
2017-May-22 07:00N 56°36' W 155°36'7 6.8 200 / 18 6.9 7.0
2017-May-22 06:00N 56°42' W 155°42'9 8.9 220 / 191003.0 5.4 6.9 5.2-7.1
2017-May-22 05:00N 56°48' W 155°54'3 3.3 220 / 181005.0 6.9 5.4 7.1
2017-May-22 04:00N 56°48' W 156°00'0 0.0 210 / 19 7.2 7.0
2017-May-22 03:00N 56°48' W 156°00'1615.5 230 / 18 7.2 7.0
2017-May-22 02:00N 57°00' W 156°18'3 3.3 240 / 15 7.5 6.7
2017-May-22 01:00N 57°00' W 156°12'9 8.9 230 / 16 8.0 7.0
2017-May-22 00:00N 57°06' W 156°00'9 8.9 240 / 15 8.2 6.9
2017-May-21 23:00N 57°00' W 155°48'7 6.8 260 / 12 8.1 7.0
2017-May-21 22:00N 56°54' W 155°42'0 0.0 250 / 10 7.8 7.2
2017-May-21 21:00N 56°54' W 155°42'9 8.9 270 / 101005.8 5.4 7.5 5.1 7.2
2017-May-21 20:00N 56°48' W 155°30'9 8.9 270 / 121005.8 7.2 5.1 7.4
2017-May-21 19:00N 56°42' W 155°18'3 3.3 270 / 81005.7 7.2 4.8 7.1
2017-May-21 18:00N 56°42' W 155°12'12 6.0 280 / 151006.0 6.9 5.0 7.0
2017-May-21 16:00N 56°54' W 155°12'9 8.9 280 / 121006.2 6.3 4.8 7.1
2017-May-21 15:00N 57°00' W 155°24'9 8.9 280 / 111006.5 6.0 5.3 6.8
2017-May-21 14:00N 57°06' W 155°36'9 8.9 270 / 101006.8 5.8 5.2 6.5
2017-May-21 13:00N 57°12' W 155°48'9 8.8 280 / 61007.2 5.9 4.7 6.5
2017-May-21 12:00N 57°18' W 156°00'7 6.8 250 / 71007.6 5.9 5.0 6.5
2017-May-21 11:00N 57°24' W 155°54'6 6.5 280 / 101007.8 6.3 4.7 6.3
2017-May-21 10:00N 57°24' W 155°42'9 8.8 010 / 5 6.2 6.4
2017-May-21 09:00N 57°18' W 155°30'9 8.8 060 / 161008.0 6.1 5.2 6.3
2017-May-21 08:00N 57°12' W 155°18'9 8.9 050 / 171008.1 6.1 5.2 6.5
2017-May-21 07:00N 57°06' W 155°06'9 8.9 040 / 151007.6 6.5 5.3 6.8
2017-May-21 06:00N 57°00' W 154°54'1212.4 200 / 11007.3 7.5 5.6 8.0
2017-May-21 05:00N 57°12' W 154°48'9 8.8 240 / 21007.2 7.1 5.6 7.2
2017-May-21 04:00N 57°18' W 155°00'9 8.8 040 / 231007.3 6.8 5.6 6.6
2017-May-21 03:00N 57°24' W 155°12'6 6.5 050 / 211007.9 6.7 5.7 6.5
2017-May-21 02:00N 57°24' W 155°24'1212.4 060 / 19 6.8 6.2
2017-May-21 01:00N 57°36' W 155°18'1414.2 060 / 211009.0 8.0 5.5 6.7
2017-May-21 00:00N 57°30' W 154°54'6 6.0 050 / 241006.510.8 6.5 5.5-6.4
2017-May-20 23:00N 57°24' W 154°54'3 3.2 040 / 241008.1 6.5 5.0 6.5
2017-May-20 22:00N 57°24' W 154°48'1515.4 030 / 231008.3 7.1 4.9 6.4
2017-May-20 21:00N 57°36' W 155°06'9 8.8 040 / 251008.6 6.9 5.4 6.3
2017-May-20 20:00N 57°42' W 155°18'3 3.2 050 / 161009.2 6.8 4.6 6.5
2017-May-20 19:00N 57°42' W 155°12'0 0.0 060 / 161009.3 6.2 4.3 6.5
2017-May-20 18:00N 57°42' W 155°12'0 0.0 050 / 191009.2 6.3 4.6 6.2
2017-May-20 17:00N 57°42' W 155°12'7 6.8 050 / 181008.8 6.4 3.9 6.5
2017-May-20 16:00N 57°36' W 155°06'0 0.0 050 / 201008.6 5.9 4.6 6.2
2017-May-20 15:00N 57°36' W 155°06'0 0.0 040 / 221008.4 5.5 4.3 6.1
2017-May-20 14:00N 57°36' W 155°06'3 3.2 050 / 221008.5 5.5 4.9 6.1
2017-May-20 13:00N 57°36' W 155°00'0 0.0 050 / 221008.6 5.2 5.2 6.2
2017-May-20 12:00N 57°36' W 155°00'3 3.2 040 / 231008.7 5.3 5.3 6.2
2017-May-20 11:00N 57°36' W 154°54'0 0.0 040 / 221008.6 5.5 4.6 6.3
2017-May-20 10:00N 57°36' W 154°54'7 6.8 040 / 201008.9 5.9 4.2 6.3
2017-May-20 09:00N 57°30' W 154°48'0 0.0 060 / 25 6.0 6.3
2017-May-20 06:00N 57°30' W 154°48'0 0.0 040 / 211008.1 6.0 4.5 6.4
2017-May-20 05:00N 57°30' W 154°48'0 0.0 050 / 241008.3 6.1 4.7 6.3
2017-May-20 04:00N 57°30' W 154°48'0 0.0 040 / 281008.2 6.5 4.8 6.3
2017-May-20 03:00N 57°30' W 154°48'6 6.0 040 / 311008.4 6.6 4.2 6.4
2017-May-20 02:00N 57°36' W 154°48'9 8.8 050 / 27 6.4 6.4
2017-May-20 01:00N 57°42' W 154°36'1413.6 050 / 251009.3 6.7 3.8 6.5
2017-May-20 00:00N 57°54' W 154°24'9 8.7 050 / 221009.7 6.6 3.6 6.6
2017-May-19 23:00N 58°00' W 154°12'1111.3 040 / 161010.4 6.9 3.2 6.6
2017-May-19 22:00N 58°06' W 153°54'7 6.8 050 / 161010.6 6.8 3.5 7.0
2017-May-19 21:00N 58°12' W 153°48'9 8.7 050 / 141011.1 7.4 3.3 7.0
2017-May-19 20:00N 58°18' W 153°36'9 8.7 070 / 141011.2 6.5 3.4 6.7
2017-May-19 19:00N 58°24' W 153°24'7 6.8 090 / 131011.3 6.4 3.1 6.5
2017-May-19 18:00N 58°30' W 153°18'9 8.7 100 / 111011.3 6.1 2.8 6.7
2017-May-19 17:00N 58°36' W 153°06'1111.1 100 / 161011.2 6.3 4.0 6.6
2017-May-19 16:00N 58°42' W 152°48'9 8.6 120 / 131011.2 5.6 3.7 6.0
2017-May-19 15:00N 58°48' W 152°36'7 6.8 120 / 191011.2 5.7 3.9 6.4
2017-May-19 14:00N 58°54' W 152°30'9 8.6 120 / 191011.2 5.8 3.7 6.2
2017-May-19 13:00N 59°00' W 152°18'9 8.6 120 / 191011.7 5.9 3.4 6.0
2017-May-19 12:00N 59°06' W 152°06'1212.3 110 / 161012.1 4.9 3.1 6.0
2017-May-19 11:00N 59°06' W 151°42'1111.0 100 / 121012.6 5.4 3.1 6.1
2017-May-19 10:00N 59°00' W 151°24'3 3.1 120 / 11 5.4 6.0
2017-May-19 09:00N 59°00' W 151°18'3 3.1 100 / 14 5.7 6.2
2017-May-19 08:00N 59°00' W 151°12'7 6.8 120 / 14 5.9 6.3
2017-May-19 07:00N 58°54' W 151°06'3 3.1 120 / 13 5.4 6.6
2017-May-19 06:00N 58°54' W 151°00'7 6.8 130 / 13 5.7 6.2
2017-May-19 05:00N 58°48' W 150°54'9 8.6 120 / 15 6.8 6.4
2017-May-19 04:00N 58°42' W 150°42'0 0.0 130 / 19 6.3 6.8
2017-May-19 03:00N 58°42' W 150°42'9 8.7 130 / 15 5.9 6.8
2017-May-19 02:00N 58°36' W 150°30'3 3.1 140 / 13 6.2 7.0
2017-May-19 01:00N 58°36' W 150°24'7 6.8 100 / 23 6.1 7.0
2017-May-19 00:00N 58°30' W 150°18'7 6.8 120 / 21 6.0 6.8
2017-May-18 23:00N 58°24' W 150°24'6 6.3 110 / 19 6.0 6.6
2017-May-18 22:00N 58°24' W 150°36'9 8.7 110 / 15 6.1 6.5
2017-May-18 21:00N 58°30' W 150°48'7 6.8 100 / 17 5.7 6.6
2017-May-18 20:00N 58°36' W 150°54'9 8.7 100 / 17 6.4 7.0
2017-May-18 19:00N 58°42' W 151°06'9 8.6 100 / 15 6.2 6.5
2017-May-18 18:00N 58°48' W 151°18'9 8.6 100 / 141012.3 5.9 4.4 6.1
2017-May-18 17:00N 58°54' W 151°30'9 8.6 090 / 181012.2 5.7 4.8 6.1
2017-May-18 16:00N 58°48' W 151°42'0 0.0 120 / 16 6.1 6.5
2017-May-18 15:00N 58°48' W 151°42'9 8.6 120 / 12 6.3 6.5
2017-May-18 14:00N 58°42' W 151°30'3 3.1 130 / 12 6.2 6.8
2017-May-18 13:00N 58°42' W 151°36'1111.1 140 / 121012.2 6.3 5.3 6.8
2017-May-18 12:00N 58°36' W 151°18'0 0.0 140 / 13 6.4 6.7
2017-May-18 11:00N 58°36' W 151°18'1413.5 150 / 16 6.4 6.7
2017-May-18 10:00N 58°24' W 151°06'6 6.0 160 / 13 6.3 6.7
2017-May-18 09:00N 58°30' W 151°06'7 6.8 150 / 5 6.6 6.7
2017-May-18 08:00N 58°24' W 151°00'7 6.8 150 / 12 6.2 6.7
2017-May-18 07:00N 58°18' W 150°54'6 6.3 160 / 13 6.0 6.5
2017-May-18 06:00N 58°18' W 150°42'6 6.0 170 / 131010.8 5.4 6.4 -6.7
2017-May-18 05:00N 58°12' W 150°42'6 6.3 180 / 11 6.4 6.7
2017-May-18 04:00N 58°12' W 150°54'1413.6 170 / 131011.8 6.2 5.8 6.8
2017-May-18 03:00N 58°00' W 151°06'9 8.7 180 / 11 6.1 5.8
2017-May-18 02:00N 58°06' W 151°18'3 3.2 160 / 11 6.1 6.2
2017-May-18 01:00N 58°06' W 151°24'9 8.7 150 / 14 6.0 6.4
2017-May-18 00:00N 58°00' W 151°36'9 8.7 150 / 12 7.2 6.5
2017-May-17 23:00N 57°54' W 151°24'1413.6 160 / 10 6.3 6.2
2017-May-17 22:00N 57°42' W 151°36'6 6.4 170 / 11 6.2 6.0
2017-May-17 21:00N 57°42' W 151°48'1616.0 180 / 131007.610.8 8.5 -6.4
2017-May-17 20:00N 57°42' W 152°18'3 3.2 140 / 11 6.2 6.6
2017-May-17 19:00N 57°42' W 152°24'0 0.0 120 / 6 6.4 6.6
2017-May-17 18:00N 57°42' W 152°24'0 0.0 160 / 6 6.1 6.6
2017-May-17 17:00N 57°42' W 152°24'0 0.0 160 / 6 5.9 6.5
2017-May-17 16:00N 57°42' W 152°24'0 0.0 180 / 8 6.3 6.6
2017-May-17 15:00N 57°42' W 152°24'0 0.0 190 / 9 6.0 6.6
2017-May-17 14:00N 57°42' W 152°24'6 6.4 200 / 9 5.9 6.5
2017-May-17 13:00N 57°42' W 152°12'1111.3 180 / 4 5.6 6.5
2017-May-17 12:00N 57°48' W 151°54'7 6.8 230 / 7 5.3 5.8
2017-May-17 11:00N 57°54' W 151°48'1413.6 260 / 121003.4 5.4 5.4 5.8
2017-May-17 10:00N 57°42' W 152°00'9 8.8 280 / 7 5.8 6.5
2017-May-17 09:00N 57°36' W 151°48'7 6.8 240 / 7 5.8 6.3
2017-May-17 08:00N 57°30' W 151°54'7 6.8 360 / 6 5.7 5.9
2017-May-17 07:00N 57°24' W 152°00'1413.6 020 / 9 5.6 6.5
2017-May-17 06:00N 57°12' W 152°12'1111.5 030 / 8 5.6 6.4
2017-May-17 05:00N 57°06' W 152°30'1515.5 040 / 12 5.6 6.8
2017-May-17 04:00N 56°54' W 152°48'7 6.8 080 / 10 6.0 7.0
2017-May-17 03:00N 56°48' W 152°54'1817.8 080 / 9999.310.8 6.5 -6.7
2017-May-17 02:00N 56°36' W 153°18'9 8.9 070 / 7 6.3 6.6
2017-May-17 01:00N 56°30' W 153°30'1211.6 090 / 4 6.1 6.7
2017-May-17 00:00N 56°24' W 153°48'1413.7 260 / 15 6.5 6.3
2017-May-16 23:00N 56°12' W 154°00'1211.7 280 / 13 6.2 6.3
2017-May-16 22:00N 56°06' W 154°18'1211.7 250 / 13 7.4 6.3
2017-May-16 21:00N 56°00' W 154°36'1211.7 240 / 13 8.0 6.5
2017-May-16 20:00N 55°54' W 154°54'1211.8 240 / 12 6.2 6.0
2017-May-16 19:00N 55°48' W 155°12'1211.8 230 / 13 6.3 5.7
2017-May-16 18:00N 55°42' W 155°30'1010.1 230 / 13998.2 6.8 6.8 5.7
2017-May-16 17:00N 55°42' W 155°48'7413.4 240 / 10997.6 6.0 6.0 6.6
2017-May-16 16:59N 55°36' W 155°54'9 9.2 250 / 13 5.9 6.0
2017-May-16 16:00N 55°42' W 156°06'7413.4 240 / 16996.5 5.8 5.8 6.0
2017-May-16 15:59N 55°36' W 156°12'1010.3 230 / 16 5.5 5.8
2017-May-16 15:00N 55°36' W 156°30'1413.6 220 / 16995.9 5.5 5.5 5.9
2017-May-16 14:00N 55°36' W 156°54'7413.6 220 / 15995.3 5.6 5.6 5.6
2017-May-16 13:59N 55°30' W 157°00'1010.4 230 / 18 5.7 5.6
2017-May-16 13:00N 55°30' W 157°18'1413.6 190 / 15 5.8 5.9
2017-May-16 12:00N 55°30' W 157°42'1211.8 160 / 16 5.8 6.0
2017-May-16 11:00N 55°24' W 158°00'1413.6 130 / 16 5.6 6.0
2017-May-16 10:00N 55°24' W 158°24'1010.2 120 / 17 5.6 6.0
2017-May-16 09:00N 55°24' W 158°42'1413.6 110 / 18 5.5 6.1
2017-May-16 08:00N 55°24' W 159°06'1211.9 100 / 20 5.5 6.1
2017-May-16 07:00N 55°18' W 159°24'1413.7 090 / 20 5.7 6.0
2017-May-16 06:00N 55°18' W 159°48'1211.9 080 / 25 5.4 4.8
2017-May-16 05:00N 55°12' W 160°06'1010.3 080 / 27 5.5 5.0
2017-May-16 04:00N 55°12' W 160°24'7 6.9 070 / 33 5.4 4.8
2017-May-16 03:00N 55°18' W 160°30'0 0.0 090 / 11 6.1 5.6
2017-May-16 02:00N 55°18' W 160°30'0 0.0 100 / 8 5.9 5.5
2017-May-16 01:00N 55°18' W 160°30'0 0.0 060 / 11 5.8 5.5
2017-May-16 00:00N 55°18' W 160°30'0 0.0 080 / 12 5.7 5.6
2017-May-15 23:00N 55°18' W 160°30'0 0.0 090 / 14 6.0 5.6
2017-May-15 22:00N 55°18' W 160°30'0 0.0 090 / 15 6.3 5.4
2017-May-15 21:00N 55°18' W 160°30'9 9.1 100 / 17 6.5 5.3
2017-May-15 20:00N 55°12' W 160°18'1010.3 060 / 18 5.6 5.0
2017-May-15 19:00N 55°12' W 160°00'   080 / 13 6.6 5.0
Track history (hours):
 
Tides and Currents Weather Stations Pressure Air Temp Water Temp Dewpoint Dewpoint Depression Visibility Wind Speed Wind Dir Waves Ship Positions

Oceanographic research ship Oscar Dyson (USA)

Ship's website: http://www.moc.noaa.gov/od/

Detailed information on ship capabilities available from University of Delaware's Ocean Information Center and ARCUS's ALIAS (Arctic Logistics Information and Support) project.

Last reported at 2017-May-25 19:00 UTC. Time now 2017-May-25 20:06 UTC.
Position N 55°30' W 156°00'.

Type: Ship. MMSI: 369959000.

Wind from 270 at 16 knots

Barometer 1023.0 mb
Air temperature 6.2 ° C
Dewpoint 2.8 ° C
Water temperature 7.2 ° C

Date/timePositionNaut miles runAvg speedWind from/ knotsBaromVisibWave heightAir tempDewpointWater temp
2017-May-25 19:00N 55°30' W 156°00'9 9.1 270 / 161023.0 6.2 2.8 7.2
2017-May-25 18:00N 55°36' W 156°12'3 3.4 270 / 141022.8 6.3 3.0 6.6
2017-May-25 17:00N 55°36' W 156°18'7 6.9 280 / 181022.3 6.2 3.0 6.3
2017-May-25 16:00N 55°42' W 156°24'9 9.0 280 / 171021.6 5.9 3.0 6.3
2017-May-25 15:00N 55°48' W 156°36'0 0.0 270 / 211021.1 5.8 3.3 6.1
2017-May-25 14:00N 55°48' W 156°36'9 9.0 280 / 20 5.9 6.2
2017-May-25 13:00N 55°54' W 156°48'0 0.0 260 / 211020.3 6.0 3.6 6.4
2017-May-25 12:00N 55°54' W 156°48'9 9.0 250 / 20 5.8 6.4
2017-May-25 11:00N 56°00' W 157°00'3 3.4 240 / 191020.1 5.9 3.7 6.3
2017-May-25 10:00N 56°00' W 157°06'0 0.0 250 / 15 5.9 6.5
2017-May-25 09:00N 56°00' W 157°06'1413.7 250 / 181020.0 6.0 3.9 6.4
2017-May-25 08:00N 56°12' W 157°18'3 3.3 240 / 181019.5 6.1 3.8 6.2
2017-May-25 07:00N 56°12' W 157°24'7 6.9 230 / 201019.2 6.0 4.3 6.2
2017-May-25 06:00N 56°18' W 157°30'3 3.3 230 / 141019.5 6.0 4.3 6.2
2017-May-25 05:00N 56°18' W 157°24'7 6.7 240 / 161019.3 6.0 3.9 5.6
2017-May-25 04:00N 56°18' W 157°12'3 3.3 240 / 181019.3 6.3 3.6 6.2
2017-May-25 03:00N 56°18' W 157°06'9 9.0 230 / 221019.0 6.6 4.4 6.2
2017-May-25 02:00N 56°12' W 156°54'3 3.3 220 / 191019.5 6.8 3.8 6.2
2017-May-25 01:00N 56°12' W 156°48'0 0.0 230 / 181019.3 6.5 2.9 6.2
2017-May-25 00:00N 56°12' W 156°48'0 0.0 250 / 181019.3 6.6 2.6 5.7
2017-May-24 23:00N 56°12' W 156°48'0 0.0 240 / 151019.0 6.4 2.5 5.6
2017-May-24 22:00N 56°12' W 156°48'0 0.0 230 / 151018.5 6.6 3.9 5.6
2017-May-24 21:00N 56°12' W 156°48'0 0.0 270 / 61018.0 6.2 3.9 5.6
2017-May-24 20:00N 56°12' W 156°48'0 0.0 270 / 111016.9 5.8 4.7 5.6
2017-May-24 19:00N 56°12' W 156°48'0 0.0 260 / 141015.8 6.3 5.6 5.6
2017-May-24 18:00N 56°12' W 156°48'0 0.0 230 / 221014.8 6.6 5.9 5.6
2017-May-24 17:00N 56°12' W 156°48'0 0.0 230 / 211014.2 6.6 5.9 5.3
2017-May-24 16:00N 56°12' W 156°48'0 0.0 220 / 221013.9 6.7 5.9 5.5
2017-May-24 15:00N 56°12' W 156°48'0 0.0 200 / 231014.0 6.8 6.0 5.6
2017-May-24 14:00N 56°12' W 156°48'0 0.0 200 / 231014.2 6.9 6.0 5.3
2017-May-24 13:00N 56°12' W 156°48'0 0.0 190 / 231014.2 6.8 6.1 5.3
2017-May-24 12:00N 56°12' W 156°48'0 0.0 210 / 241014.4 7.0 6.1 5.3
2017-May-24 11:00N 56°12' W 156°48'0 0.0 220 / 221015.0 7.0 6.0 5.3
2017-May-24 10:00N 56°12' W 156°48'3200.3 210 / 221015.2 7.1 6.2 5.3
2017-May-24 09:59N 56°12' W 156°42'3 3.4 210 / 21 7.1 5.3
2017-May-24 09:00N 56°12' W 156°48'3200.3 200 / 221015.6 7.1 6.2 5.3
2017-May-24 08:59N 56°12' W 156°42'3 3.4 210 / 22 7.1 5.3
2017-May-24 08:00N 56°12' W 156°48'0 0.0 210 / 241016.0 7.0 6.3 5.5
2017-May-24 07:00N 56°12' W 156°48'0 0.0 210 / 251016.2 6.8 6.2 5.6
2017-May-24 06:00N 56°12' W 156°48'0 0.0 210 / 251016.3 7.0 6.2 5.5
2017-May-24 05:00N 56°12' W 156°48'3 3.3 200 / 301016.6 7.3 6.2 5.6
2017-May-24 04:00N 56°12' W 156°42'1413.7 210 / 32 7.3 5.3
2017-May-24 03:00N 56°00' W 156°30'6 6.0 210 / 29 6.9 5.9
2017-May-24 02:00N 55°54' W 156°30'7 6.7 220 / 261019.2 6.6 6.3 6.1
2017-May-24 01:00N 55°54' W 156°18'7 6.9 210 / 281019.6 6.9 6.3 7.1
2017-May-24 00:00N 55°48' W 156°12'9 9.0 210 / 271020.2 7.2 6.6 7.0
2017-May-23 23:00N 55°42' W 156°00'7 6.9 220 / 231021.2 7.0 6.7 6.3
2017-May-23 22:00N 55°36' W 155°54'7 6.8 210 / 291021.6 6.9 6.5 7.2
2017-May-23 21:00N 55°36' W 155°42'7 6.9 210 / 251021.6 6.9 6.2 7.1
2017-May-23 20:00N 55°42' W 155°36'9 9.0 220 / 211022.2 6.7 5.4 6.3
2017-May-23 19:00N 55°48' W 155°48'0 0.0 220 / 221022.2 6.3 5.4 6.5
2017-May-23 18:00N 55°48' W 155°48'9 9.0 220 / 191022.4 6.2 5.1 6.2
2017-May-23 17:00N 55°54' W 156°00'7 6.9 220 / 211021.8 6.5 5.1 7.2
2017-May-23 16:00N 56°00' W 156°06'9 9.0 230 / 211021.7 6.8 4.7 7.3
2017-May-23 15:00N 56°06' W 156°18'9 9.0 230 / 181021.5 6.6 4.6 7.0
2017-May-23 14:00N 56°12' W 156°30'9 9.0 230 / 181021.3 6.6 4.7 6.7
2017-May-23 13:00N 56°18' W 156°42'9 9.0 230 / 171021.3 6.8 4.6 7.0
2017-May-23 12:00N 56°24' W 156°54'6 6.0 220 / 171021.0 6.7 5.0 6.8
2017-May-23 11:00N 56°30' W 156°54'6 6.0 250 / 161020.7 6.6 4.6 6.2
2017-May-23 10:00N 56°36' W 156°54'3 3.3 160 / 51020.7 6.3 3.1 6.5
2017-May-23 09:00N 56°36' W 156°48'7 6.9 200 / 71020.8 6.3 4.0 6.4
2017-May-23 08:00N 56°30' W 156°42'9 8.9 220 / 71020.7 6.5 2.8 6.7
2017-May-23 07:00N 56°24' W 156°30'0 0.0 280 / 71020.3 6.7 2.6 6.8
2017-May-23 06:00N 56°24' W 156°30'9 9.0 280 / 101019.6 6.8 2.8 6.7
2017-May-23 05:00N 56°18' W 156°18'9 9.0 290 / 171019.2 6.7 2.8 6.8
2017-May-23 04:00N 56°12' W 156°06'3 3.3 270 / 181018.3 6.9 2.4 7.3
2017-May-23 03:00N 56°12' W 156°00'3 3.3 280 / 181018.0 7.1 3.1 7.4
2017-May-23 02:00N 56°12' W 155°54'7 6.9 300 / 22 6.9 7.4
2017-May-23 01:00N 56°18' W 155°48'1211.6 290 / 211016.2 7.1 2.9 7.4
2017-May-23 00:00N 56°24' W 156°06'3 3.3 280 / 161015.5 7.4 3.6 7.2
2017-May-22 23:00N 56°24' W 156°00'12 5.8 280 / 16 7.4 7.1
2017-May-22 21:00N 56°30' W 156°18'9 8.9 290 / 201012.1 6.0 3.6 7.1
2017-May-22 20:00N 56°36' W 156°30'7 6.8 290 / 171011.1 6.1 3.0 6.6
2017-May-22 19:00N 56°42' W 156°36'7 6.8 280 / 151010.3 5.7 3.4 6.6
2017-May-22 18:00N 56°48' W 156°42'3 3.3 290 / 81009.6 5.6 3.5 6.5
2017-May-22 17:00N 56°48' W 156°36'3 3.3 280 / 5 5.1 6.1
2017-May-22 16:00N 56°48' W 156°30'7 6.6 250 / 7 5.0 6.7
2017-May-22 15:00N 56°48' W 156°18'1413.7 230 / 101007.4 4.8 3.6 6.5
2017-May-22 14:00N 56°36' W 156°06'0 0.0 210 / 9 5.0 6.6
2017-May-22 13:00N 56°36' W 156°06'1211.6 240 / 101006.7 4.9 3.4 6.8
2017-May-22 12:00N 56°30' W 155°48'0 0.0 210 / 14 5.4 7.0
2017-May-22 11:00N 56°30' W 155°48'9 8.9 220 / 161006.3 5.7 4.5 7.0
2017-May-22 10:00N 56°24' W 155°36'9 8.9 200 / 13 6.8 7.1
2017-May-22 09:00N 56°30' W 155°24'3 3.3 210 / 17 6.6 7.1
2017-May-22 08:00N 56°30' W 155°30'7 6.9 220 / 21 6.8 7.3
2017-May-22 07:00N 56°36' W 155°36'7 6.8 200 / 18 6.9 7.0
2017-May-22 06:00N 56°42' W 155°42'9 8.9 220 / 191003.0 5.4 6.9 5.2-7.1
2017-May-22 05:00N 56°48' W 155°54'3 3.3 220 / 181005.0 6.9 5.4 7.1
2017-May-22 04:00N 56°48' W 156°00'0 0.0 210 / 19 7.2 7.0
2017-May-22 03:00N 56°48' W 156°00'1615.5 230 / 18 7.2 7.0
2017-May-22 02:00N 57°00' W 156°18'3 3.3 240 / 15 7.5 6.7
2017-May-22 01:00N 57°00' W 156°12'9 8.9 230 / 16 8.0 7.0
2017-May-22 00:00N 57°06' W 156°00'9 8.9 240 / 15 8.2 6.9
2017-May-21 23:00N 57°00' W 155°48'7 6.8 260 / 12 8.1 7.0
2017-May-21 22:00N 56°54' W 155°42'0 0.0 250 / 10 7.8 7.2
2017-May-21 21:00N 56°54' W 155°42'9 8.9 270 / 101005.8 5.4 7.5 5.1 7.2
2017-May-21 20:00N 56°48' W 155°30'9 8.9 270 / 121005.8 7.2 5.1 7.4
2017-May-21 19:00N 56°42' W 155°18'3 3.3 270 / 81005.7 7.2 4.8 7.1
2017-May-21 18:00N 56°42' W 155°12'12 6.0 280 / 151006.0 6.9 5.0 7.0
2017-May-21 16:00N 56°54' W 155°12'9 8.9 280 / 121006.2 6.3 4.8 7.1
2017-May-21 15:00N 57°00' W 155°24'9 8.9 280 / 111006.5 6.0 5.3 6.8
2017-May-21 14:00N 57°06' W 155°36'9 8.9 270 / 101006.8 5.8 5.2 6.5
2017-May-21 13:00N 57°12' W 155°48'9 8.8 280 / 61007.2 5.9 4.7 6.5
2017-May-21 12:00N 57°18' W 156°00'7 6.8 250 / 71007.6 5.9 5.0 6.5
2017-May-21 11:00N 57°24' W 155°54'6 6.5 280 / 101007.8 6.3 4.7 6.3
2017-May-21 10:00N 57°24' W 155°42'9 8.8 010 / 5 6.2 6.4
2017-May-21 09:00N 57°18' W 155°30'9 8.8 060 / 161008.0 6.1 5.2 6.3
2017-May-21 08:00N 57°12' W 155°18'9 8.9 050 / 171008.1 6.1 5.2 6.5
2017-May-21 07:00N 57°06' W 155°06'9 8.9 040 / 151007.6 6.5 5.3 6.8
2017-May-21 06:00N 57°00' W 154°54'1212.4 200 / 11007.3 7.5 5.6 8.0
2017-May-21 05:00N 57°12' W 154°48'9 8.8 240 / 21007.2 7.1 5.6 7.2
2017-May-21 04:00N 57°18' W 155°00'9 8.8 040 / 231007.3 6.8 5.6 6.6
2017-May-21 03:00N 57°24' W 155°12'6 6.5 050 / 211007.9 6.7 5.7 6.5
2017-May-21 02:00N 57°24' W 155°24'1212.4 060 / 19 6.8 6.2
2017-May-21 01:00N 57°36' W 155°18'1414.2 060 / 211009.0 8.0 5.5 6.7
2017-May-21 00:00N 57°30' W 154°54'6 6.0 050 / 241006.510.8 6.5 5.5-6.4
2017-May-20 23:00N 57°24' W 154°54'3 3.2 040 / 241008.1 6.5 5.0 6.5
2017-May-20 22:00N 57°24' W 154°48'1515.4 030 / 231008.3 7.1 4.9 6.4
2017-May-20 21:00N 57°36' W 155°06'9 8.8 040 / 251008.6 6.9 5.4 6.3
2017-May-20 20:00N 57°42' W 155°18'3 3.2 050 / 161009.2 6.8 4.6 6.5
2017-May-20 19:00N 57°42' W 155°12'0 0.0 060 / 161009.3 6.2 4.3 6.5
2017-May-20 18:00N 57°42' W 155°12'0 0.0 050 / 191009.2 6.3 4.6 6.2
2017-May-20 17:00N 57°42' W 155°12'7 6.8 050 / 181008.8 6.4 3.9 6.5
2017-May-20 16:00N 57°36' W 155°06'0 0.0 050 / 201008.6 5.9 4.6 6.2
2017-May-20 15:00N 57°36' W 155°06'0 0.0 040 / 221008.4 5.5 4.3 6.1
2017-May-20 14:00N 57°36' W 155°06'3 3.2 050 / 221008.5 5.5 4.9 6.1
2017-May-20 13:00N 57°36' W 155°00'0 0.0 050 / 221008.6 5.2 5.2 6.2
2017-May-20 12:00N 57°36' W 155°00'3 3.2 040 / 231008.7 5.3 5.3 6.2
2017-May-20 11:00N 57°36' W 154°54'0 0.0 040 / 221008.6 5.5 4.6 6.3
2017-May-20 10:00N 57°36' W 154°54'7 6.8 040 / 201008.9 5.9 4.2 6.3
2017-May-20 09:00N 57°30' W 154°48'0 0.0 060 / 25 6.0 6.3
2017-May-20 06:00N 57°30' W 154°48'0 0.0 040 / 211008.1 6.0 4.5 6.4
2017-May-20 05:00N 57°30' W 154°48'0 0.0 050 / 241008.3 6.1 4.7 6.3
2017-May-20 04:00N 57°30' W 154°48'0 0.0 040 / 281008.2 6.5 4.8 6.3
2017-May-20 03:00N 57°30' W 154°48'6 6.0 040 / 311008.4 6.6 4.2 6.4
2017-May-20 02:00N 57°36' W 154°48'9 8.8 050 / 27 6.4 6.4
2017-May-20 01:00N 57°42' W 154°36'1413.6 050 / 251009.3 6.7 3.8 6.5
2017-May-20 00:00N 57°54' W 154°24'9 8.7 050 / 221009.7 6.6 3.6 6.6
2017-May-19 23:00N 58°00' W 154°12'1111.3 040 / 161010.4 6.9 3.2 6.6
2017-May-19 22:00N 58°06' W 153°54'7 6.8 050 / 161010.6 6.8 3.5 7.0
2017-May-19 21:00N 58°12' W 153°48'9 8.7 050 / 141011.1 7.4 3.3 7.0
2017-May-19 20:00N 58°18' W 153°36'9 8.7 070 / 141011.2 6.5 3.4 6.7
2017-May-19 19:00N 58°24' W 153°24'7 6.8 090 / 131011.3 6.4 3.1 6.5
2017-May-19 18:00N 58°30' W 153°18'9 8.7 100 / 111011.3 6.1 2.8 6.7
2017-May-19 17:00N 58°36' W 153°06'1111.1 100 / 161011.2 6.3 4.0 6.6
2017-May-19 16:00N 58°42' W 152°48'9 8.6 120 / 131011.2 5.6 3.7 6.0
2017-May-19 15:00N 58°48' W 152°36'7 6.8 120 / 191011.2 5.7 3.9 6.4
2017-May-19 14:00N 58°54' W 152°30'9 8.6 120 / 191011.2 5.8 3.7 6.2
2017-May-19 13:00N 59°00' W 152°18'9 8.6 120 / 191011.7 5.9 3.4 6.0
2017-May-19 12:00N 59°06' W 152°06'1212.3 110 / 161012.1 4.9 3.1 6.0
2017-May-19 11:00N 59°06' W 151°42'1111.0 100 / 121012.6 5.4 3.1 6.1
2017-May-19 10:00N 59°00' W 151°24'3 3.1 120 / 11 5.4 6.0
2017-May-19 09:00N 59°00' W 151°18'3 3.1 100 / 14 5.7 6.2
2017-May-19 08:00N 59°00' W 151°12'7 6.8 120 / 14 5.9 6.3
2017-May-19 07:00N 58°54' W 151°06'3 3.1 120 / 13 5.4 6.6
2017-May-19 06:00N 58°54' W 151°00'7 6.8 130 / 13 5.7 6.2
2017-May-19 05:00N 58°48' W 150°54'9 8.6 120 / 15 6.8 6.4
2017-May-19 04:00N 58°42' W 150°42'0 0.0 130 / 19 6.3 6.8
2017-May-19 03:00N 58°42' W 150°42'9 8.7 130 / 15 5.9 6.8
2017-May-19 02:00N 58°36' W 150°30'3 3.1 140 / 13 6.2 7.0
2017-May-19 01:00N 58°36' W 150°24'7 6.8 100 / 23 6.1 7.0
2017-May-19 00:00N 58°30' W 150°18'7 6.8 120 / 21 6.0 6.8
2017-May-18 23:00N 58°24' W 150°24'6 6.3 110 / 19 6.0 6.6
2017-May-18 22:00N 58°24' W 150°36'9 8.7 110 / 15 6.1 6.5
2017-May-18 21:00N 58°30' W 150°48'7 6.8 100 / 17 5.7 6.6
2017-May-18 20:00N 58°36' W 150°54'9 8.7 100 / 17 6.4 7.0
2017-May-18 19:00N 58°42' W 151°06'9 8.6 100 / 15 6.2 6.5
2017-May-18 18:00N 58°48' W 151°18'9 8.6 100 / 141012.3 5.9 4.4 6.1
2017-May-18 17:00N 58°54' W 151°30'9 8.6 090 / 181012.2 5.7 4.8 6.1
2017-May-18 16:00N 58°48' W 151°42'0 0.0 120 / 16 6.1 6.5
2017-May-18 15:00N 58°48' W 151°42'9 8.6 120 / 12 6.3 6.5
2017-May-18 14:00N 58°42' W 151°30'3 3.1 130 / 12 6.2 6.8
2017-May-18 13:00N 58°42' W 151°36'1111.1 140 / 121012.2 6.3 5.3 6.8
2017-May-18 12:00N 58°36' W 151°18'0 0.0 140 / 13 6.4 6.7
2017-May-18 11:00N 58°36' W 151°18'1413.5 150 / 16 6.4 6.7
2017-May-18 10:00N 58°24' W 151°06'6 6.0 160 / 13 6.3 6.7
2017-May-18 09:00N 58°30' W 151°06'7 6.8 150 / 5 6.6 6.7
2017-May-18 08:00N 58°24' W 151°00'7 6.8 150 / 12 6.2 6.7
2017-May-18 07:00N 58°18' W 150°54'6 6.3 160 / 13 6.0 6.5
2017-May-18 06:00N 58°18' W 150°42'6 6.0 170 / 131010.8 5.4 6.4 -6.7
2017-May-18 05:00N 58°12' W 150°42'6 6.3 180 / 11 6.4 6.7
2017-May-18 04:00N 58°12' W 150°54'1413.6 170 / 131011.8 6.2 5.8 6.8
2017-May-18 03:00N 58°00' W 151°06'9 8.7 180 / 11 6.1 5.8
2017-May-18 02:00N 58°06' W 151°18'3 3.2 160 / 11 6.1 6.2
2017-May-18 01:00N 58°06' W 151°24'9 8.7 150 / 14 6.0 6.4
2017-May-18 00:00N 58°00' W 151°36'9 8.7 150 / 12 7.2 6.5
2017-May-17 23:00N 57°54' W 151°24'1413.6 160 / 10 6.3 6.2
2017-May-17 22:00N 57°42' W 151°36'6 6.4 170 / 11 6.2 6.0
2017-May-17 21:00N 57°42' W 151°48'1616.0 180 / 131007.610.8 8.5 -6.4
2017-May-17 20:00N 57°42' W 152°18'3 3.2 140 / 11 6.2 6.6
2017-May-17 19:00N 57°42' W 152°24'0 0.0 120 / 6 6.4 6.6
2017-May-17 18:00N 57°42' W 152°24'0 0.0 160 / 6 6.1 6.6
2017-May-17 17:00N 57°42' W 152°24'0 0.0 160 / 6 5.9 6.5
2017-May-17 16:00N 57°42' W 152°24'0 0.0 180 / 8 6.3 6.6
2017-May-17 15:00N 57°42' W 152°24'0 0.0 190 / 9 6.0 6.6
2017-May-17 14:00N 57°42' W 152°24'6 6.4 200 / 9 5.9 6.5
2017-May-17 13:00N 57°42' W 152°12'1111.3 180 / 4 5.6 6.5
2017-May-17 12:00N 57°48' W 151°54'7 6.8 230 / 7 5.3 5.8
2017-May-17 11:00N 57°54' W 151°48'1413.6 260 / 121003.4 5.4 5.4 5.8
2017-May-17 10:00N 57°42' W 152°00'9 8.8 280 / 7 5.8 6.5
2017-May-17 09:00N 57°36' W 151°48'7 6.8 240 / 7 5.8 6.3
2017-May-17 08:00N 57°30' W 151°54'7 6.8 360 / 6 5.7 5.9
2017-May-17 07:00N 57°24' W 152°00'1413.6 020 / 9 5.6 6.5
2017-May-17 06:00N 57°12' W 152°12'1111.5 030 / 8 5.6 6.4
2017-May-17 05:00N 57°06' W 152°30'1515.5 040 / 12 5.6 6.8
2017-May-17 04:00N 56°54' W 152°48'7 6.8 080 / 10 6.0 7.0
2017-May-17 03:00N 56°48' W 152°54'1817.8 080 / 9999.310.8 6.5 -6.7
2017-May-17 02:00N 56°36' W 153°18'9 8.9 070 / 7 6.3 6.6
2017-May-17 01:00N 56°30' W 153°30'1211.6 090 / 4 6.1 6.7
2017-May-17 00:00N 56°24' W 153°48'1413.7 260 / 15 6.5 6.3
2017-May-16 23:00N 56°12' W 154°00'1211.7 280 / 13 6.2 6.3
2017-May-16 22:00N 56°06' W 154°18'1211.7 250 / 13 7.4 6.3
2017-May-16 21:00N 56°00' W 154°36'1211.7 240 / 13 8.0 6.5
2017-May-16 20:00N 55°54' W 154°54'1211.8 240 / 12 6.2 6.0
2017-May-16 19:00N 55°48' W 155°12'1211.8 230 / 13 6.3 5.7
2017-May-16 18:00N 55°42' W 155°30'1010.1 230 / 13998.2 6.8 6.8 5.7
2017-May-16 17:00N 55°42' W 155°48'7413.4 240 / 10997.6 6.0 6.0 6.6
2017-May-16 16:59N 55°36' W 155°54'9 9.2 250 / 13 5.9 6.0
2017-May-16 16:00N 55°42' W 156°06'7413.4 240 / 16996.5 5.8 5.8 6.0
2017-May-16 15:59N 55°36' W 156°12'1010.3 230 / 16 5.5 5.8
2017-May-16 15:00N 55°36' W 156°30'1413.6 220 / 16995.9 5.5 5.5 5.9
2017-May-16 14:00N 55°36' W 156°54'7413.6 220 / 15995.3 5.6 5.6 5.6
2017-May-16 13:59N 55°30' W 157°00'1010.4 230 / 18 5.7 5.6
2017-May-16 13:00N 55°30' W 157°18'1413.6 190 / 15 5.8 5.9
2017-May-16 12:00N 55°30' W 157°42'1211.8 160 / 16 5.8 6.0
2017-May-16 11:00N 55°24' W 158°00'1413.6 130 / 16 5.6 6.0
2017-May-16 10:00N 55°24' W 158°24'1010.2 120 / 17 5.6 6.0
2017-May-16 09:00N 55°24' W 158°42'1413.6 110 / 18 5.5 6.1
2017-May-16 08:00N 55°24' W 159°06'1211.9 100 / 20 5.5 6.1
2017-May-16 07:00N 55°18' W 159°24'1413.7 090 / 20 5.7 6.0
2017-May-16 06:00N 55°18' W 159°48'1211.9 080 / 25 5.4 4.8
2017-May-16 05:00N 55°12' W 160°06'1010.3 080 / 27 5.5 5.0
2017-May-16 04:00N 55°12' W 160°24'7 6.9 070 / 33 5.4 4.8
2017-May-16 03:00N 55°18' W 160°30'0 0.0 090 / 11 6.1 5.6
2017-May-16 02:00N 55°18' W 160°30'0 0.0 100 / 8 5.9 5.5
2017-May-16 01:00N 55°18' W 160°30'0 0.0 060 / 11 5.8 5.5
2017-May-16 00:00N 55°18' W 160°30'0 0.0 080 / 12 5.7 5.6
2017-May-15 23:00N 55°18' W 160°30'0 0.0 090 / 14 6.0 5.6
2017-May-15 22:00N 55°18' W 160°30'0 0.0 090 / 15 6.3 5.4
2017-May-15 21:00N 55°18' W 160°30'9 9.1 100 / 17 6.5 5.3
2017-May-15 20:00N 55°12' W 160°18'1010.3 060 / 18 5.6 5.0
2017-May-15 19:00N 55°12' W 160°00'   080 / 13 6.6 5.0

Dump ship's entire track history